Time;durP1;ratioP1;P1;durP2;ratioP2;P2;SDS_P1;SDS_P2;PMS_P1;PMS_P2;Temp;Humidity;BMP_temperature;BMP_pressure;BME280_temperature;BME280_humidity;BME280_pressure;Samples;Min_cycle;Max_cycle;Signal;HPM_P1;HPM_P2
2023/09/14 00:01:29;;;;;;;0.00;0.00;;;;;;;;;;5114406;28;20241;-77
2023/09/14 00:03:55;;;;;;;0.10;0.10;;;;;;;;;;5125212;28;20230;-77
2023/09/14 00:06:21;;;;;;;0.10;0.10;;;;;;;;;;5114069;28;20246;-77
2023/09/14 00:08:48;;;;;;;0.10;0.10;;;;;;;;;;5124310;28;20268;-77
2023/09/14 00:11:14;;;;;;;0.10;0.10;;;;;;;;;;5114488;28;20310;-77
2023/09/14 00:13:41;;;;;;;0.10;0.10;;;;;;;;;;5125189;28;20246;-77
2023/09/14 00:16:08;;;;;;;0.10;0.10;;;;;;;;;;5114341;28;20237;-77
2023/09/14 00:18:35;;;;;;;0.10;0.10;;;;;;;;;;5124783;28;20276;-77
2023/09/14 00:21:02;;;;;;;0.10;0.10;;;;;;;;;;5114353;28;20296;-77
2023/09/14 00:23:28;;;;;;;0.00;0.00;;;;;;;;;;5124698;28;20295;-77
2023/09/14 00:25:54;;;;;;;0.10;0.10;;;;;;;;;;5114395;27;20354;-77
2023/09/14 00:28:21;;;;;;;0.10;0.10;;;;;;;;;;5124660;28;20240;-78
2023/09/14 00:30:51;;;;;;;0.10;0.10;;;;;;;;;;5114198;28;20312;-77
2023/09/14 00:33:19;;;;;;;0.10;0.10;;;;;;;;;;5124282;28;20271;-78
2023/09/14 00:35:46;;;;;;;0.10;0.10;;;;;;;;;;5114209;28;20253;-77
2023/09/14 00:38:12;;;;;;;0.10;0.10;;;;;;;;;;5124229;28;20357;-77
2023/09/14 00:40:38;;;;;;;0.00;0.00;;;;;;;;;;5113999;28;20308;-77
2023/09/14 00:43:05;;;;;;;0.10;0.10;;;;;;;;;;5123965;28;20203;-77
2023/09/14 00:45:32;;;;;;;0.03;0.03;;;;;;;;;;5114028;28;20247;-77
2023/09/14 00:47:59;;;;;;;0.10;0.10;;;;;;;;;;5123910;28;20212;-77
2023/09/14 00:50:27;;;;;;;0.10;0.10;;;;;;;;;;5114175;28;20620;-77
2023/09/14 00:52:56;;;;;;;0.10;0.10;;;;;;;;;;5123588;28;20263;-77
2023/09/14 00:55:24;;;;;;;0.00;0.00;;;;;;;;;;5113857;28;20201;-77
2023/09/14 00:57:50;;;;;;;0.10;0.10;;;;;;;;;;5123591;28;20232;-77
2023/09/14 01:00:17;;;;;;;0.10;0.10;;;;;;;;;;5113794;28;20276;-77
2023/09/14 01:02:43;;;;;;;0.10;0.10;;;;;;;;;;5123480;28;20202;-77
2023/09/14 01:05:11;;;;;;;0.00;0.00;;;;;;;;;;5113869;28;20248;-77
2023/09/14 01:07:39;;;;;;;0.10;0.10;;;;;;;;;;5123478;28;20202;-77
2023/09/14 01:10:06;;;;;;;0.10;0.10;;;;;;;;;;5124351;28;20571;-77
2023/09/14 01:12:33;;;;;;;0.10;0.10;;;;;;;;;;5112706;28;20249;-77
2023/09/14 01:15:03;;;;;;;0.10;0.10;;;;;;;;;;5124032;28;20211;-77
2023/09/14 01:17:33;;;;;;;0.00;0.00;;;;;;;;;;5112689;28;20258;-77
2023/09/14 01:20:04;;;;;;;0.10;0.10;;;;;;;;;;5123805;28;20352;-77
2023/09/14 01:22:36;;;;;;;0.10;0.10;;;;;;;;;;5112629;28;20257;-77
2023/09/14 01:25:08;;;;;;;0.10;0.10;;;;;;;;;;5123908;28;20232;-76
2023/09/14 01:27:36;;;;;;;0.10;0.10;;;;;;;;;;5095707;28;20237;-77
2023/09/14 01:30:04;;;;;;;0.10;0.10;;;;;;;;;;5123952;28;20240;-77
2023/09/14 01:32:30;;;;;;;0.10;0.10;;;;;;;;;;5095810;28;20545;-77
2023/09/14 01:34:56;;;;;;;0.10;0.10;;;;;;;;;;5124259;28;20437;-78
2023/09/14 01:37:23;;;;;;;0.10;0.10;;;;;;;;;;5112532;28;20257;-77
2023/09/14 01:39:51;;;;;;;0.10;0.10;;;;;;;;;;5124160;28;20201;-78
2023/09/14 01:42:18;;;;;;;0.08;0.08;;;;;;;;;;5112550;28;20499;-77
2023/09/14 01:44:46;;;;;;;0.10;0.10;;;;;;;;;;5123798;28;20212;-77
2023/09/14 01:47:13;;;;;;;0.10;0.10;;;;;;;;;;5112378;28;20250;-77
2023/09/14 01:49:39;;;;;;;0.10;0.10;;;;;;;;;;5123738;28;20233;-77
2023/09/14 01:52:06;;;;;;;0.10;0.10;;;;;;;;;;5112354;28;20248;-77
2023/09/14 01:54:32;;;;;;;0.10;0.10;;;;;;;;;;5124273;28;20494;-77
2023/09/14 01:56:58;;;;;;;0.10;0.10;;;;;;;;;;5112434;28;20436;-77
2023/09/14 01:59:25;;;;;;;0.10;0.10;;;;;;;;;;5124043;28;20202;-77
2023/09/14 02:01:52;;;;;;;0.10;0.10;;;;;;;;;;5112467;28;20308;-77
2023/09/14 02:04:19;;;;;;;0.10;0.10;;;;;;;;;;5124059;28;20271;-77
2023/09/14 02:06:45;;;;;;;0.07;0.07;;;;;;;;;;5112372;28;20248;-77
2023/09/14 02:09:11;;;;;;;0.10;0.10;;;;;;;;;;5123894;28;20269;-77
2023/09/14 02:11:38;;;;;;;0.10;0.10;;;;;;;;;;5112545;28;20240;-77
2023/09/14 02:14:04;;;;;;;0.10;0.10;;;;;;;;;;5123730;28;20269;-77
2023/09/14 02:16:30;;;;;;;0.10;0.10;;;;;;;;;;5112422;28;20243;-77
2023/09/14 02:18:58;;;;;;;0.10;0.10;;;;;;;;;;5123658;28;20244;-77
2023/09/14 02:21:25;;;;;;;0.10;0.10;;;;;;;;;;5112464;28;20256;-77
2023/09/14 02:23:51;;;;;;;0.10;0.10;;;;;;;;;;5123383;28;20380;-77
2023/09/14 02:26:17;;;;;;;0.10;0.10;;;;;;;;;;5112337;28;20249;-77
2023/09/14 02:28:44;;;;;;;0.10;0.10;;;;;;;;;;5123444;28;20395;-78
2023/09/14 02:31:10;;;;;;;0.10;0.10;;;;;;;;;;5114217;28;20460;-78
2023/09/14 02:33:37;;;;;;;0.10;0.10;;;;;;;;;;5126929;28;20208;-77
2023/09/14 02:36:06;;;;;;;0.10;0.10;;;;;;;;;;5116275;28;20603;-77
2023/09/14 02:38:32;;;;;;;0.10;0.10;;;;;;;;;;5126937;28;20250;-77
2023/09/14 02:40:59;;;;;;;0.10;0.10;;;;;;;;;;5116210;28;20268;-77
2023/09/14 02:43:25;;;;;;;0.10;0.10;;;;;;;;;;5126554;28;20205;-77
2023/09/14 02:45:51;;;;;;;0.10;0.10;;;;;;;;;;5116347;28;20232;-77
2023/09/14 02:48:18;;;;;;;0.10;0.10;;;;;;;;;;5126381;28;20272;-77
2023/09/14 02:50:44;;;;;;;0.10;0.10;;;;;;;;;;5116337;28;20248;-77
2023/09/14 02:53:12;;;;;;;0.10;0.10;;;;;;;;;;5126149;28;20208;-77
2023/09/14 02:55:39;;;;;;;0.10;0.10;;;;;;;;;;5116107;28;20241;-78
2023/09/14 02:58:07;;;;;;;0.10;0.10;;;;;;;;;;5126098;28;20209;-77
2023/09/14 03:00:33;;;;;;;0.10;0.10;;;;;;;;;;5116358;28;20246;-78
2023/09/14 03:03:00;;;;;;;0.07;0.07;;;;;;;;;;5126129;28;20232;-78
2023/09/14 03:05:26;;;;;;;0.10;0.10;;;;;;;;;;5116114;28;20236;-78
2023/09/14 03:07:52;;;;;;;0.10;0.10;;;;;;;;;;5125673;28;20243;-77
2023/09/14 03:10:20;;;;;;;0.10;0.10;;;;;;;;;;5116187;28;20269;-77
2023/09/14 03:12:46;;;;;;;0.00;0.00;;;;;;;;;;5125595;28;20237;-77
2023/09/14 03:15:13;;;;;;;0.10;0.10;;;;;;;;;;5116156;28;20273;-78
2023/09/14 03:17:39;;;;;;;0.10;0.10;;;;;;;;;;5125246;28;20382;-77
2023/09/14 03:20:07;;;;;;;0.10;0.10;;;;;;;;;;5126444;28;20488;-77
2023/09/14 03:22:33;;;;;;;0.10;0.10;;;;;;;;;;5097622;28;20213;-78
2023/09/14 03:25:00;;;;;;;0.10;0.10;;;;;;;;;;5126055;28;20299;-77
2023/09/14 03:27:28;;;;;;;0.10;0.10;;;;;;;;;;5114624;28;20566;-77
2023/09/14 03:29:54;;;;;;;0.10;0.10;;;;;;;;;;5126365;28;20202;-77
2023/09/14 03:32:20;;;;;;;2.03;1.93;;;;;;;;;;5114512;28;20493;-77
2023/09/14 03:34:47;;;;;;;0.10;0.10;;;;;;;;;;5126254;28;20458;-77
2023/09/14 03:37:13;;;;;;;0.10;0.10;;;;;;;;;;5114470;28;20482;-77
2023/09/14 03:39:39;;;;;;;0.30;0.30;;;;;;;;;;5126158;28;20448;-77
2023/09/14 03:42:10;;;;;;;0.10;0.10;;;;;;;;;;5114177;28;20238;-77
2023/09/14 03:44:38;;;;;;;0.40;0.40;;;;;;;;;;5126163;28;20199;-77
2023/09/14 03:47:04;;;;;;;0.10;0.10;;;;;;;;;;5114160;28;20261;-77
2023/09/14 03:49:30;;;;;;;0.10;0.10;;;;;;;;;;5126193;28;20240;-77
2023/09/14 03:51:57;;;;;;;0.10;0.10;;;;;;;;;;5114412;28;20261;-77
2023/09/14 03:54:23;;;;;;;0.10;0.10;;;;;;;;;;5125936;28;20266;-77
2023/09/14 03:56:49;;;;;;;0.10;0.10;;;;;;;;;;5114161;28;20308;-77
2023/09/14 03:59:16;;;;;;;0.10;0.10;;;;;;;;;;5125752;28;20244;-77
2023/09/14 04:01:44;;;;;;;0.10;0.10;;;;;;;;;;5114177;28;20386;-77
2023/09/14 04:04:10;;;;;;;0.10;0.10;;;;;;;;;;5125189;28;20233;-77
2023/09/14 04:06:36;;;;;;;0.10;0.10;;;;;;;;;;5114196;28;20240;-77
2023/09/14 04:09:04;;;;;;;0.10;0.10;;;;;;;;;;5125142;28;20468;-77
2023/09/14 04:11:30;;;;;;;0.10;0.10;;;;;;;;;;5114140;28;20304;-77
2023/09/14 04:13:57;;;;;;;0.10;0.10;;;;;;;;;;5125220;28;20205;-77
2023/09/14 04:16:28;;;;;;;0.10;0.10;;;;;;;;;;5113963;28;20241;-77
2023/09/14 04:19:00;;;;;;;0.10;0.10;;;;;;;;;;5124668;28;20230;-77
2023/09/14 04:21:27;;;;;;;0.10;0.10;;;;;;;;;;5114005;28;20305;-77
2023/09/14 04:23:53;;;;;;;0.10;0.10;;;;;;;;;;5124959;28;20417;-77
2023/09/14 04:26:19;;;;;;;0.10;0.10;;;;;;;;;;5113866;28;20248;-77
2023/09/14 04:28:46;;;;;;;0.10;0.10;;;;;;;;;;5124762;28;20203;-77
2023/09/14 04:31:12;;;;;;;0.10;0.10;;;;;;;;;;5113892;28;20493;-77
2023/09/14 04:33:41;;;;;;;0.10;0.10;;;;;;;;;;5124321;28;20264;-77
2023/09/14 04:36:08;;;;;;;0.10;0.10;;;;;;;;;;5113751;28;20251;-77
2023/09/14 04:38:35;;;;;;;0.10;0.10;;;;;;;;;;5124416;28;20234;-77
2023/09/14 04:41:02;;;;;;;0.10;0.10;;;;;;;;;;5113785;28;20250;-77
2023/09/14 04:43:29;;;;;;;0.10;0.10;;;;;;;;;;5124044;28;20233;-77
2023/09/14 04:45:55;;;;;;;0.10;0.10;;;;;;;;;;5113691;28;20292;-77
2023/09/14 04:48:22;;;;;;;0.10;0.10;;;;;;;;;;5124204;28;20283;-77
2023/09/14 04:50:48;;;;;;;0.10;0.10;;;;;;;;;;5113962;28;20247;-77
2023/09/14 04:53:16;;;;;;;0.10;0.10;;;;;;;;;;5123364;28;20242;-77
2023/09/14 04:55:44;;;;;;;0.10;0.10;;;;;;;;;;5113823;28;20319;-77
2023/09/14 04:58:11;;;;;;;0.10;0.10;;;;;;;;;;5123737;28;20238;-77
2023/09/14 05:00:37;;;;;;;0.10;0.10;;;;;;;;;;5113986;28;20240;-77
2023/09/14 05:03:05;;;;;;;0.10;0.10;;;;;;;;;;5123836;28;20209;-77
2023/09/14 05:05:31;;;;;;;0.10;0.10;;;;;;;;;;5113992;28;20324;-77
2023/09/14 05:07:58;;;;;;;0.10;0.10;;;;;;;;;;5123651;28;20224;-77
2023/09/14 05:10:26;;;;;;;0.10;0.10;;;;;;;;;;5113922;28;20235;-77
2023/09/14 05:12:52;;;;;;;0.10;0.10;;;;;;;;;;5123311;28;20211;-77
2023/09/14 05:15:19;;;;;;;0.10;0.10;;;;;;;;;;5113506;28;20243;-77
2023/09/14 05:17:45;;;;;;;0.10;0.10;;;;;;;;;;5123237;28;20267;-77
2023/09/14 05:20:12;;;;;;;0.10;0.10;;;;;;;;;;5113913;28;20425;-77
2023/09/14 05:22:38;;;;;;;0.10;0.10;;;;;;;;;;5123347;28;20211;-77
2023/09/14 05:25:05;;;;;;;0.07;0.07;;;;;;;;;;5123816;28;20249;-76
2023/09/14 05:27:38;;;;;;;0.10;0.10;;;;;;;;;;5112584;28;20303;-77
2023/09/14 05:30:05;;;;;;;0.10;0.10;;;;;;;;;;5123947;28;20236;-76
2023/09/14 05:32:31;;;;;;;0.10;0.10;;;;;;;;;;5095398;28;20231;-76
2023/09/14 05:34:58;;;;;;;0.73;0.73;;;;;;;;;;5124225;28;20446;-77
2023/09/14 05:37:24;;;;;;;0.10;0.10;;;;;;;;;;5112438;28;20236;-77
2023/09/14 05:39:51;;;;;;;0.10;0.10;;;;;;;;;;5123799;28;20242;-77
2023/09/14 05:42:17;;;;;;;0.93;0.93;;;;;;;;;;5112391;28;20238;-77
2023/09/14 05:44:45;;;;;;;0.10;0.10;;;;;;;;;;5124094;28;20242;-77
2023/09/14 05:47:11;;;;;;;0.10;0.10;;;;;;;;;;5112314;28;20238;-77
2023/09/14 05:49:38;;;;;;;0.10;0.10;;;;;;;;;;5124087;28;20278;-77
2023/09/14 05:52:05;;;;;;;0.10;0.10;;;;;;;;;;5112404;28;20302;-76
2023/09/14 05:54:31;;;;;;;0.10;0.10;;;;;;;;;;5124214;28;20498;-77
2023/09/14 05:56:57;;;;;;;0.10;0.10;;;;;;;;;;5112454;28;20303;-77
2023/09/14 05:59:24;;;;;;;0.10;0.10;;;;;;;;;;5124155;28;20523;-77
2023/09/14 06:01:52;;;;;;;0.10;0.10;;;;;;;;;;5112482;28;20239;-77
2023/09/14 06:04:18;;;;;;;0.10;0.10;;;;;;;;;;5123572;28;20274;-77
2023/09/14 06:06:45;;;;;;;0.10;0.10;;;;;;;;;;5115063;28;20299;-77
2023/09/14 06:09:11;;;;;;;0.10;0.10;;;;;;;;;;5127924;28;20276;-77
2023/09/14 06:11:37;;;;;;;0.10;0.10;;;;;;;;;;5116354;28;20240;-77
2023/09/14 06:14:04;;;;;;;0.10;0.10;;;;;;;;;;5127375;28;20220;-76
2023/09/14 06:16:30;;;;;;;0.10;0.10;;;;;;;;;;5116465;28;20250;-77
2023/09/14 06:18:58;;;;;;;0.10;0.10;;;;;;;;;;5127683;28;20395;-77
2023/09/14 06:21:24;;;;;;;0.10;0.10;;;;;;;;;;5116568;28;20264;-78
2023/09/14 06:23:51;;;;;;;0.10;0.10;;;;;;;;;;5127645;28;20233;-78
2023/09/14 06:26:17;;;;;;;0.10;0.10;;;;;;;;;;5116520;28;20243;-78
2023/09/14 06:28:43;;;;;;;0.10;0.10;;;;;;;;;;5127149;28;20235;-81
2023/09/14 06:31:10;;;;;;;0.40;0.40;;;;;;;;;;5116286;28;20252;-77
2023/09/14 06:33:36;;;;;;;0.10;0.10;;;;;;;;;;5127109;28;20212;-77
2023/09/14 06:36:04;;;;;;;0.10;0.10;;;;;;;;;;5116450;28;20314;-76
2023/09/14 06:38:30;;;;;;;0.10;0.10;;;;;;;;;;5126547;28;20507;-77
2023/09/14 06:40:57;;;;;;;0.10;0.10;;;;;;;;;;5116395;28;20543;-76
2023/09/14 06:43:23;;;;;;;0.10;0.10;;;;;;;;;;5126763;28;20441;-76
2023/09/14 06:45:50;;;;;;;0.10;0.10;;;;;;;;;;5116468;28;20237;-76
2023/09/14 06:48:16;;;;;;;0.10;0.10;;;;;;;;;;5126614;28;20258;-76
2023/09/14 06:50:43;;;;;;;0.10;0.10;;;;;;;;;;5116364;28;20304;-76
2023/09/14 06:53:10;;;;;;;0.10;0.10;;;;;;;;;;5126126;28;20242;-76
2023/09/14 06:55:38;;;;;;;0.10;0.10;;;;;;;;;;5116433;28;20504;-76
2023/09/14 06:58:04;;;;;;;0.10;0.10;;;;;;;;;;5126274;28;20377;-75
2023/09/14 07:00:32;;;;;;;0.10;0.10;;;;;;;;;;5116055;28;20238;-76
2023/09/14 07:02:59;;;;;;;0.20;0.20;;;;;;;;;;5126070;28;20379;-76
2023/09/14 07:05:25;;;;;;;0.10;0.10;;;;;;;;;;5116254;28;20426;-76
2023/09/14 07:07:51;;;;;;;0.10;0.10;;;;;;;;;;5125819;28;20279;-78
2023/09/14 07:10:19;;;;;;;0.10;0.10;;;;;;;;;;5116298;28;20401;-76
2023/09/14 07:12:45;;;;;;;0.10;0.10;;;;;;;;;;5125761;28;20213;-76
2023/09/14 07:15:12;;;;;;;0.10;0.10;;;;;;;;;;5116013;28;20202;-76
2023/09/14 07:17:38;;;;;;;0.10;0.10;;;;;;;;;;5124727;28;20215;-77
2023/09/14 07:20:06;;;;;;;0.10;0.10;;;;;;;;;;5126503;28;20206;-76
2023/09/14 07:22:32;;;;;;;0.10;0.10;;;;;;;;;;5077446;28;20216;-76
2023/09/14 07:24:59;;;;;;;0.10;0.10;;;;;;;;;;5106053;28;20483;-77
2023/09/14 07:27:26;;;;;;;0.10;0.10;;;;;;;;;;5113460;28;20259;-76
2023/09/14 07:29:53;;;;;;;0.10;0.10;;;;;;;;;;5126385;28;20453;-76
2023/09/14 07:32:20;;;;;;;0.20;0.20;;;;;;;;;;5114616;28;20484;-76
2023/09/14 07:34:46;;;;;;;0.10;0.10;;;;;;;;;;5126351;28;20247;-76
2023/09/14 07:37:13;;;;;;;0.10;0.10;;;;;;;;;;5114526;28;20237;-76
2023/09/14 07:39:39;;;;;;;0.10;0.10;;;;;;;;;;5126185;28;20272;-76
2023/09/14 07:42:05;;;;;;;0.10;0.10;;;;;;;;;;5114477;28;20241;-75
2023/09/14 07:44:33;;;;;;;0.10;0.10;;;;;;;;;;5126253;28;20213;-76
2023/09/14 07:47:00;;;;;;;0.67;0.67;;;;;;;;;;5114400;28;20438;-76
2023/09/14 07:49:26;;;;;;;0.10;0.10;;;;;;;;;;5126045;28;20205;-76
2023/09/14 07:51:52;;;;;;;0.10;0.10;;;;;;;;;;5114447;28;20259;-76
2023/09/14 07:54:21;;;;;;;0.10;0.10;;;;;;;;;;5125849;28;20234;-75
2023/09/14 07:56:47;;;;;;;0.10;0.10;;;;;;;;;;5114417;28;20311;-76
2023/09/14 07:59:14;;;;;;;0.10;0.10;;;;;;;;;;5125702;28;20241;-76
2023/09/14 08:01:42;;;;;;;0.10;0.10;;;;;;;;;;5114330;28;20253;-75
2023/09/14 08:04:08;;;;;;;0.93;0.93;;;;;;;;;;5125538;28;20229;-75
2023/09/14 08:06:34;;;;;;;0.10;0.10;;;;;;;;;;5114441;28;20320;-75
2023/09/14 08:09:01;;;;;;;0.10;0.10;;;;;;;;;;5124793;28;20226;-75
2023/09/14 08:11:27;;;;;;;0.10;0.10;;;;;;;;;;5114291;28;20279;-76
2023/09/14 08:13:54;;;;;;;0.10;0.10;;;;;;;;;;5125183;28;20266;-76
2023/09/14 08:16:20;;;;;;;0.10;0.10;;;;;;;;;;5114126;28;20307;-75
2023/09/14 08:18:48;;;;;;;0.10;0.10;;;;;;;;;;5125039;28;20201;-75
2023/09/14 08:21:14;;;;;;;0.10;0.10;;;;;;;;;;5114289;28;20246;-75
2023/09/14 08:23:42;;;;;;;0.10;0.10;;;;;;;;;;5124899;28;20232;-76
2023/09/14 08:26:08;;;;;;;0.10;0.10;;;;;;;;;;5114294;28;20257;-75
2023/09/14 08:28:35;;;;;;;0.10;0.10;;;;;;;;;;5123715;28;20230;-75
2023/09/14 08:31:01;;;;;;;0.10;0.10;;;;;;;;;;5114101;28;20261;-75
2023/09/14 08:33:29;;;;;;;0.10;0.10;;;;;;;;;;5124500;28;20274;-75
2023/09/14 08:35:57;;;;;;;0.10;0.10;;;;;;;;;;5113947;28;20572;-74
2023/09/14 08:38:25;;;;;;;0.17;0.17;;;;;;;;;;5124470;28;20391;-74
2023/09/14 08:40:53;;;;;;;0.10;0.10;;;;;;;;;;5114207;28;20244;-74
2023/09/14 08:43:19;;;;;;;1.20;1.20;;;;;;;;;;5124252;28;20230;-74
2023/09/14 08:45:46;;;;;;;0.10;0.10;;;;;;;;;;5113952;28;20300;-74
2023/09/14 08:48:14;;;;;;;0.10;0.10;;;;;;;;;;5124101;28;20233;-74
2023/09/14 08:50:43;;;;;;;0.10;0.10;;;;;;;;;;5113901;28;20307;-74
2023/09/14 08:53:11;;;;;;;0.43;0.43;;;;;;;;;;5123848;28;20201;-74
2023/09/14 08:55:38;;;;;;;0.00;0.00;;;;;;;;;;5114252;28;20325;-74
2023/09/14 08:58:04;;;;;;;0.10;0.10;;;;;;;;;;5123703;28;20198;-74
2023/09/14 09:00:32;;;;;;;0.10;0.10;;;;;;;;;;5114054;28;20259;-74
2023/09/14 09:02:58;;;;;;;0.15;0.15;;;;;;;;;;5123885;28;20375;-74
2023/09/14 09:05:25;;;;;;;0.10;0.10;;;;;;;;;;5114072;28;20275;-74
2023/09/14 09:07:54;;;;;;;0.10;0.10;;;;;;;;;;5123649;28;20254;-74
2023/09/14 09:10:22;;;;;;;0.10;0.10;;;;;;;;;;5113969;28;20207;-73
2023/09/14 09:12:50;;;;;;;0.10;0.10;;;;;;;;;;5123275;28;20274;-73
2023/09/14 09:15:16;;;;;;;0.10;0.10;;;;;;;;;;5113685;28;20202;-75
2023/09/14 09:17:42;;;;;;;5.07;4.78;;;;;;;;;;5123256;28;20272;-73
2023/09/14 09:20:16;;;;;;;0.10;0.10;;;;;;;;;;5121802;28;20212;-76
2023/09/14 09:22:43;;;;;;;0.93;0.93;;;;;;;;;;5123292;28;20404;-76
2023/09/14 09:25:10;;;;;;;0.00;0.00;;;;;;;;;;5113910;28;20224;-76
2023/09/14 09:27:39;;;;;;;0.10;0.10;;;;;;;;;;5122899;28;20205;-77
2023/09/14 09:30:06;;;;;;;0.10;0.10;;;;;;;;;;5124094;28;20460;-76
2023/09/14 09:32:32;;;;;;;0.10;0.10;;;;;;;;;;5095535;28;20228;-77
2023/09/14 09:35:01;;;;;;;0.00;0.00;;;;;;;;;;5124353;28;20397;-77
2023/09/14 09:37:27;;;;;;;0.10;0.10;;;;;;;;;;5112615;28;20515;-77
2023/09/14 09:39:55;;;;;;;0.10;0.10;;;;;;;;;;5125653;28;20204;-77
2023/09/14 09:42:21;;;;;;;0.10;0.10;;;;;;;;;;5116993;28;20243;-75
2023/09/14 09:44:49;;;;;;;0.00;0.00;;;;;;;;;;5128186;28;20273;-75
2023/09/14 09:47:16;;;;;;;0.10;0.10;;;;;;;;;;5116741;28;20504;-75
2023/09/14 09:49:42;;;;;;;0.10;0.10;;;;;;;;;;5127996;28;20232;-75
2023/09/14 09:52:10;;;;;;;0.00;0.00;;;;;;;;;;5116730;28;20500;-75
2023/09/14 09:54:37;;;;;;;0.10;0.10;;;;;;;;;;5128377;28;20436;-75
2023/09/14 09:57:05;;;;;;;0.10;0.10;;;;;;;;;;5116665;28;20439;-75
2023/09/14 09:59:32;;;;;;;0.10;0.10;;;;;;;;;;5128466;28;20206;-75
2023/09/14 10:02:00;;;;;;;0.03;0.03;;;;;;;;;;5116501;28;20312;-74
2023/09/14 10:04:27;;;;;;;0.10;0.10;;;;;;;;;;5128186;28;20403;-75
2023/09/14 10:06:55;;;;;;;0.10;0.10;;;;;;;;;;5116428;28;20281;-75
2023/09/14 10:09:22;;;;;;;0.03;0.03;;;;;;;;;;5128040;28;20272;-74
2023/09/14 10:11:50;;;;;;;0.10;0.10;;;;;;;;;;5116400;28;20275;-74
2023/09/14 10:14:21;;;;;;;0.10;0.10;;;;;;;;;;5128033;28;20203;-75
2023/09/14 10:16:49;;;;;;;0.10;0.10;;;;;;;;;;5116504;28;20244;-75
2023/09/14 10:19:18;;;;;;;0.10;0.10;;;;;;;;;;5127788;28;20201;-75
2023/09/14 10:21:46;;;;;;;0.10;0.10;;;;;;;;;;5116387;28;20329;-75
2023/09/14 10:24:13;;;;;;;0.10;0.10;;;;;;;;;;5127645;28;20225;-74
2023/09/14 10:26:43;;;;;;;0.10;0.10;;;;;;;;;;5116271;28;20246;-74
2023/09/14 10:29:10;;;;;;;0.00;0.00;;;;;;;;;;5127477;28;20260;-74
2023/09/14 10:31:39;;;;;;;0.65;0.65;;;;;;;;;;5116226;28;20238;-74
2023/09/14 10:34:07;;;;;;;0.10;0.10;;;;;;;;;;5127337;28;20241;-74
2023/09/14 10:36:35;;;;;;;0.10;0.10;;;;;;;;;;5116300;28;20247;-75
2023/09/14 10:39:05;;;;;;;0.10;0.10;;;;;;;;;;5127311;28;20204;-74
2023/09/14 10:41:32;;;;;;;0.10;0.10;;;;;;;;;;5116223;28;20299;-74
2023/09/14 10:44:04;;;;;;;0.10;0.10;;;;;;;;;;5127011;28;20201;-75
2023/09/14 10:46:33;;;;;;;0.10;0.10;;;;;;;;;;5116102;28;20457;-75
2023/09/14 10:49:00;;;;;;;0.00;0.00;;;;;;;;;;5127124;28;20401;-75
2023/09/14 10:51:28;;;;;;;0.10;0.10;;;;;;;;;;5114977;28;20545;-75
2023/09/14 10:53:57;;;;;;;0.00;0.00;;;;;;;;;;5126874;28;20241;-75
2023/09/14 10:56:30;;;;;;;0.10;0.10;;;;;;;;;;5115780;28;20241;-75
2023/09/14 10:58:57;;;;;;;0.20;0.20;;;;;;;;;;5126866;28;20382;-75
2023/09/14 11:01:24;;;;;;;0.03;0.03;;;;;;;;;;5115738;28;20287;-75
2023/09/14 11:04:05;;;;;;;0.10;0.10;;;;;;;;;;5126606;28;20309;-75
2023/09/14 11:06:44;;;;;;;0.10;0.10;;;;;;;;;;5115652;28;20484;-75
2023/09/14 11:09:14;;;;;;;0.10;0.10;;;;;;;;;;5126704;28;20289;-76
2023/09/14 11:11:40;;;;;;;0.10;0.10;;;;;;;;;;5115534;28;20246;-75
2023/09/14 11:14:08;;;;;;;0.10;0.10;;;;;;;;;;5126679;28;20204;-75
2023/09/14 11:16:42;;;;;;;0.10;0.10;;;;;;;;;;5115339;28;20245;-76
2023/09/14 11:19:08;;;;;;;0.00;0.00;;;;;;;;;;5126203;28;20206;-75
2023/09/14 11:21:43;;;;;;;0.13;0.13;;;;;;;;;;5115504;28;20246;-75
2023/09/14 11:24:10;;;;;;;0.10;0.10;;;;;;;;;;5126253;28;20222;-75
2023/09/14 11:26:45;;;;;;;0.10;0.10;;;;;;;;;;5115408;28;20603;-75
2023/09/14 11:29:12;;;;;;;0.00;0.00;;;;;;;;;;5126010;28;20227;-74
2023/09/14 11:31:40;;;;;;;0.10;0.10;;;;;;;;;;5115230;28;20242;-74
2023/09/14 11:34:07;;;;;;;0.10;0.10;;;;;;;;;;5126202;28;20204;-75
2023/09/14 11:36:36;;;;;;;0.00;0.00;;;;;;;;;;5115226;28;20248;-75
2023/09/14 11:39:08;;;;;;;0.10;0.10;;;;;;;;;;5126141;28;20228;-75
2023/09/14 11:41:40;;;;;;;0.10;0.10;;;;;;;;;;5114965;28;20280;-75
2023/09/14 11:44:07;;;;;;;0.00;0.00;;;;;;;;;;5125666;28;20205;-75
2023/09/14 11:46:34;;;;;;;0.10;0.10;;;;;;;;;;5115136;28;20277;-76
2023/09/14 11:49:01;;;;;;;0.10;0.10;;;;;;;;;;5125563;28;20325;-75
2023/09/14 11:51:28;;;;;;;0.05;0.05;;;;;;;;;;5115046;28;20264;-75
2023/09/14 11:53:55;;;;;;;0.00;0.00;;;;;;;;;;5125747;28;20210;-76
2023/09/14 11:56:22;;;;;;;0.10;0.10;;;;;;;;;;5114642;28;20240;-74
2023/09/14 11:58:50;;;;;;;0.00;0.00;;;;;;;;;;5125319;28;20207;-73
2023/09/14 12:01:17;;;;;;;0.10;0.10;;;;;;;;;;5114854;28;20240;-75
2023/09/14 12:03:43;;;;;;;0.00;0.00;;;;;;;;;;5124949;28;20239;-75
2023/09/14 12:06:09;;;;;;;0.10;0.10;;;;;;;;;;5114819;28;20245;-75
2023/09/14 12:08:36;;;;;;;0.10;0.10;;;;;;;;;;5125066;28;20256;-75
2023/09/14 12:11:03;;;;;;;0.00;0.00;;;;;;;;;;5114627;28;20261;-75
2023/09/14 12:13:29;;;;;;;0.00;0.00;;;;;;;;;;5125064;28;20202;-75
2023/09/14 12:16:01;;;;;;;0.00;0.00;;;;;;;;;;5114711;28;20564;-75
2023/09/14 12:18:40;;;;;;;0.10;0.10;;;;;;;;;;5124811;28;20202;-74
2023/09/14 12:21:08;;;;;;;0.10;0.10;;;;;;;;;;5114388;28;20237;-74
2023/09/14 12:23:36;;;;;;;0.00;0.00;;;;;;;;;;5124493;28;20222;-74
2023/09/14 12:26:03;;;;;;;0.08;0.08;;;;;;;;;;5114435;28;20263;-74
2023/09/14 12:28:29;;;;;;;0.00;0.00;;;;;;;;;;5124284;28;20202;-75
2023/09/14 12:30:56;;;;;;;0.30;0.30;;;;;;;;;;5114349;28;20245;-74
2023/09/14 12:33:23;;;;;;;0.00;0.00;;;;;;;;;;5124244;28;20216;-74
2023/09/14 12:35:50;;;;;;;0.00;0.00;;;;;;;;;;5114452;28;20308;-75
2023/09/14 12:38:19;;;;;;;0.15;0.15;;;;;;;;;;5124375;28;20216;-75
2023/09/14 12:40:46;;;;;;;0.10;0.10;;;;;;;;;;5114295;28;20245;-75
2023/09/14 12:43:13;;;;;;;0.00;0.00;;;;;;;;;;5124273;28;20209;-75
2023/09/14 12:45:40;;;;;;;0.00;0.00;;;;;;;;;;5114337;28;20448;-75
2023/09/14 12:48:07;;;;;;;0.10;0.10;;;;;;;;;;5124062;28;20229;-75
2023/09/14 12:50:35;;;;;;;0.08;0.08;;;;;;;;;;5114188;28;20241;-75
2023/09/14 12:53:06;;;;;;;0.10;0.10;;;;;;;;;;5123596;28;20257;-75
2023/09/14 12:55:33;;;;;;;0.00;0.00;;;;;;;;;;5114282;28;20459;-74
2023/09/14 12:57:59;;;;;;;0.00;0.00;;;;;;;;;;5123629;28;20205;-75
2023/09/14 13:00:27;;;;;;;0.00;0.00;;;;;;;;;;5114260;28;20256;-74
2023/09/14 13:02:54;;;;;;;0.00;0.00;;;;;;;;;;5123807;28;20194;-75
2023/09/14 13:05:21;;;;;;;0.00;0.00;;;;;;;;;;5114198;28;20210;-75
2023/09/14 13:07:50;;;;;;;0.00;0.00;;;;;;;;;;5123709;28;20197;-74
2023/09/14 13:10:19;;;;;;;0.03;0.03;;;;;;;;;;5113624;28;20264;-75
2023/09/14 13:12:50;;;;;;;0.10;0.10;;;;;;;;;;5123687;28;20295;-74
2023/09/14 13:15:19;;;;;;;0.00;0.00;;;;;;;;;;5113586;28;20205;-75
2023/09/14 13:17:45;;;;;;;0.00;0.00;;;;;;;;;;5123648;28;20411;-74
2023/09/14 13:20:12;;;;;;;0.10;0.10;;;;;;;;;;5114013;28;20399;-75
2023/09/14 13:22:38;;;;;;;0.10;0.10;;;;;;;;;;5123414;28;20198;-74
2023/09/14 13:25:06;;;;;;;0.10;0.10;;;;;;;;;;5124316;28;20478;-74
2023/09/14 13:27:34;;;;;;;0.08;0.08;;;;;;;;;;5092241;28;20209;-75
2023/09/14 13:30:01;;;;;;;0.10;0.10;;;;;;;;;;5103905;28;20415;-73
2023/09/14 13:32:28;;;;;;;0.10;0.10;;;;;;;;;;5109350;28;20247;-74
2023/09/14 13:34:54;;;;;;;0.10;0.10;;;;;;;;;;5103927;28;20277;-74
2023/09/14 13:37:21;;;;;;;0.10;0.10;;;;;;;;;;5109277;28;20482;-73
2023/09/14 13:39:47;;;;;;;0.00;0.00;;;;;;;;;;5103711;28;20206;-79
2023/09/14 13:42:15;;;;;;;0.00;0.00;;;;;;;;;;5109260;28;20237;-78
2023/09/14 13:44:43;;;;;;;0.00;0.00;;;;;;;;;;5103533;28;20244;-79
2023/09/14 13:47:09;;;;;;;0.00;0.00;;;;;;;;;;5109205;28;20430;-78
2023/09/14 13:49:34;;;;;;;0.00;0.00;;;;;;;;;;5103745;28;20297;-80
2023/09/14 13:52:01;;;;;;;0.08;0.08;;;;;;;;;;5108297;28;20463;-79
2023/09/14 13:54:29;;;;;;;0.10;0.10;;;;;;;;;;5104462;28;20449;-79
2023/09/14 13:56:55;;;;;;;0.08;0.08;;;;;;;;;;5107461;28;20241;-79
2023/09/14 13:59:25;;;;;;;0.00;0.00;;;;;;;;;;5104833;28;20217;-79
2023/09/14 14:01:51;;;;;;;0.10;0.10;;;;;;;;;;5106898;28;20238;-79
2023/09/14 14:04:17;;;;;;;0.03;0.03;;;;;;;;;;5105425;28;20230;-79
2023/09/14 14:06:44;;;;;;;0.03;0.03;;;;;;;;;;5105741;28;20240;-79
2023/09/14 14:09:10;;;;;;;0.00;0.00;;;;;;;;;;5106182;28;20226;-79
2023/09/14 14:11:37;;;;;;;0.10;0.10;;;;;;;;;;5104882;28;20244;-79
2023/09/14 14:14:03;;;;;;;0.10;0.10;;;;;;;;;;5107240;28;20205;-80
2023/09/14 14:16:31;;;;;;;0.00;0.00;;;;;;;;;;5103724;28;20339;-80
2023/09/14 14:18:57;;;;;;;0.10;0.10;;;;;;;;;;5108036;28;20233;-79
2023/09/14 14:21:29;;;;;;;0.10;0.10;;;;;;;;;;5103145;28;20256;-79
2023/09/14 14:23:55;;;;;;;0.03;0.03;;;;;;;;;;5108086;28;20226;-79
2023/09/14 14:26:21;;;;;;;0.00;0.00;;;;;;;;;;5103131;28;20310;-79
2023/09/14 14:28:48;;;;;;;0.03;0.03;;;;;;;;;;5113289;28;20435;-78
2023/09/14 14:31:14;;;;;;;0.08;0.08;;;;;;;;;;5105545;28;20302;-79
2023/09/14 14:33:42;;;;;;;0.10;0.10;;;;;;;;;;5114256;28;20472;-79
2023/09/14 14:36:08;;;;;;;0.10;0.10;;;;;;;;;;5104797;28;20299;-79
2023/09/14 14:38:34;;;;;;;0.08;0.08;;;;;;;;;;5114650;28;20237;-80
2023/09/14 14:41:01;;;;;;;0.03;0.03;;;;;;;;;;5103531;28;20258;-79
2023/09/14 14:43:27;;;;;;;0.00;0.00;;;;;;;;;;5115762;28;20435;-80